sensor_id;sensor_type;location;lat;lon;timestamp;pressure;altitude;pressure_sealevel;temperature;humidity
71857;BME280;63344;46.980;28.882;2023-03-19T00:01:04;101563.69;;;5.11;78.97
71857;BME280;63344;46.980;28.882;2023-03-19T00:03:41;101562.78;;;5.11;78.80
71857;BME280;63344;46.980;28.882;2023-03-19T00:06:13;101564.56;;;5.10;79.26
71857;BME280;63344;46.980;28.882;2023-03-19T00:08:40;101553.16;;;5.07;79.21
71857;BME280;63344;46.980;28.882;2023-03-19T00:11:09;101563.69;;;5.10;78.97
71857;BME280;63344;46.980;28.882;2023-03-19T00:13:37;101563.69;;;5.10;79.10
71857;BME280;63344;46.980;28.882;2023-03-19T00:16:05;101561.03;;;5.07;78.88
71857;BME280;63344;46.980;28.882;2023-03-19T00:18:33;101543.53;;;5.07;79.05
71857;BME280;63344;46.980;28.882;2023-03-19T00:21:01;101546.13;;;5.09;78.74
71857;BME280;63344;46.980;28.882;2023-03-19T00:23:28;101542.63;;;5.07;78.69
71857;BME280;63344;46.980;28.882;2023-03-19T00:25:55;101545.28;;;5.11;79.06
71857;BME280;63344;46.980;28.882;2023-03-19T00:28:22;101544.38;;;5.08;78.82
71857;BME280;63344;46.980;28.882;2023-03-19T00:30:50;101542.59;;;5.13;78.66
71857;BME280;63344;46.980;28.882;2023-03-19T00:33:17;101547.88;;;5.14;78.77
71857;BME280;63344;46.980;28.882;2023-03-19T00:35:44;101542.59;;;5.13;78.64
71857;BME280;63344;46.980;28.882;2023-03-19T00:38:12;101549.63;;;5.17;78.74
71857;BME280;63344;46.980;28.882;2023-03-19T00:40:40;101545.22;;;5.19;78.67
71857;BME280;63344;46.980;28.882;2023-03-19T00:43:07;101543.47;;;5.21;77.81
71857;BME280;63344;46.980;28.882;2023-03-19T00:45:34;101545.25;;;5.17;77.93
71857;BME280;63344;46.980;28.882;2023-03-19T00:48:02;101531.22;;;5.15;77.97
71857;BME280;63344;46.980;28.882;2023-03-19T00:50:29;101527.72;;;5.13;77.68
71857;BME280;63344;46.980;28.882;2023-03-19T00:52:56;101533.84;;;5.14;77.93
71857;BME280;63344;46.980;28.882;2023-03-19T00:55:24;101521.56;;;5.11;77.56
71857;BME280;63344;46.980;28.882;2023-03-19T00:57:53;101525.06;;;5.15;78.07
71857;BME280;63344;46.980;28.882;2023-03-19T01:00:20;101527.69;;;5.19;77.99
71857;BME280;63344;46.980;28.882;2023-03-19T01:02:48;101530.34;;;5.19;77.71
71857;BME280;63344;46.980;28.882;2023-03-19T01:05:18;101527.69;;;5.19;77.86
71857;BME280;63344;46.980;28.882;2023-03-19T01:07:46;101524.16;;;5.21;77.79
71857;BME280;63344;46.980;28.882;2023-03-19T01:10:19;101523.28;;;5.26;77.79
71857;BME280;63344;46.980;28.882;2023-03-19T01:12:47;101523.25;;;5.31;78.13
71857;BME280;63344;46.980;28.882;2023-03-19T01:15:15;101529.41;;;5.33;77.53
71857;BME280;63344;46.980;28.882;2023-03-19T01:17:42;101523.28;;;5.29;77.27
71857;BME280;63344;46.980;28.882;2023-03-19T01:20:10;101525.94;;;5.29;77.41
71857;BME280;63344;46.980;28.882;2023-03-19T01:22:45;101528.56;;;5.26;77.51
71857;BME280;63344;46.980;28.882;2023-03-19T01:25:13;101531.19;;;5.25;77.75
71857;BME280;63344;46.980;28.882;2023-03-19T01:27:40;101525.03;;;5.21;77.74
71857;BME280;63344;46.980;28.882;2023-03-19T01:30:08;101518.91;;;5.19;78.36
71857;BME280;63344;46.980;28.882;2023-03-19T01:32:36;101525.06;;;5.18;78.87
71857;BME280;63344;46.980;28.882;2023-03-19T01:35:04;101521.56;;;5.16;79.21
71857;BME280;63344;46.980;28.882;2023-03-19T01:37:31;101513.63;;;5.19;79.44
71857;BME280;63344;46.980;28.882;2023-03-19T01:39:59;101508.38;;;5.14;79.97
71857;BME280;63344;46.980;28.882;2023-03-19T01:42:26;101516.28;;;5.14;80.44
71857;BME280;63344;46.980;28.882;2023-03-19T01:44:53;101510.16;;;5.08;80.78
71857;BME280;63344;46.980;28.882;2023-03-19T01:47:35;101522.44;;;5.10;81.11
71857;BME280;63344;46.980;28.882;2023-03-19T01:50:04;101516.31;;;5.10;81.20
71857;BME280;63344;46.980;28.882;2023-03-19T01:52:33;101512.78;;;5.08;81.44
71857;BME280;63344;46.980;28.882;2023-03-19T01:55:02;101513.66;;;5.17;81.17
71857;BME280;63344;46.980;28.882;2023-03-19T01:57:31;101513.66;;;5.17;81.37
71857;BME280;63344;46.980;28.882;2023-03-19T02:00:00;101514.53;;;5.19;80.96
71857;BME280;63344;46.980;28.882;2023-03-19T02:02:31;101517.13;;;5.23;81.25
71857;BME280;63344;46.980;28.882;2023-03-19T02:05:06;101511.88;;;5.23;80.90
71857;BME280;63344;46.980;28.882;2023-03-19T02:07:36;101510.97;;;5.27;81.12
71857;BME280;63344;46.980;28.882;2023-03-19T02:10:07;101516.22;;;5.33;80.84
71857;BME280;63344;46.980;28.882;2023-03-19T02:12:35;101514.50;;;5.33;80.59
71857;BME280;63344;46.980;28.882;2023-03-19T02:15:03;101506.56;;;5.35;80.10
71857;BME280;63344;46.980;28.882;2023-03-19T02:17:31;101510.13;;;5.28;80.28
71857;BME280;63344;46.980;28.882;2023-03-19T02:20:07;101522.38;;;5.29;80.59
71857;BME280;63344;46.980;28.882;2023-03-19T02:22:45;101513.63;;;5.22;81.16
71857;BME280;63344;46.980;28.882;2023-03-19T02:25:24;101517.13;;;5.23;81.25
71857;BME280;63344;46.980;28.882;2023-03-19T02:27:54;101511.88;;;5.18;81.68
71857;BME280;63344;46.980;28.882;2023-03-19T02:30:30;101509.25;;;5.18;81.29
71857;BME280;63344;46.980;28.882;2023-03-19T02:32:59;101511.03;;;5.17;81.57
71857;BME280;63344;46.980;28.882;2023-03-19T02:35:30;101502.25;;;5.12;81.90
71857;BME280;63344;46.980;28.882;2023-03-19T02:38:00;101510.16;;;5.15;81.98
71857;BME280;63344;46.980;28.882;2023-03-19T02:40:33;101511.88;;;5.15;82.09
71857;BME280;63344;46.980;28.882;2023-03-19T02:43:01;101503.13;;;5.11;82.20
71857;BME280;63344;46.980;28.882;2023-03-19T02:45:30;101494.38;;;5.08;82.24
71857;BME280;63344;46.980;28.882;2023-03-19T02:47:58;101505.78;;;5.11;82.28
71857;BME280;63344;46.980;28.882;2023-03-19T02:50:26;101497.00;;;5.09;82.00
71857;BME280;63344;46.980;28.882;2023-03-19T02:52:53;101500.50;;;5.11;82.45
71857;BME280;63344;46.980;28.882;2023-03-19T02:55:20;101497.84;;;5.13;82.37
71857;BME280;63344;46.980;28.882;2023-03-19T02:57:48;101506.66;;;5.13;82.49
71857;BME280;63344;46.980;28.882;2023-03-19T03:00:15;101504.91;;;5.09;82.44
71857;BME280;63344;46.980;28.882;2023-03-19T03:02:46;101512.78;;;5.05;82.59
71857;BME280;63344;46.980;28.882;2023-03-19T03:05:14;101510.16;;;5.06;82.88
71857;BME280;63344;46.980;28.882;2023-03-19T03:07:41;101516.31;;;5.04;82.68
71857;BME280;63344;46.980;28.882;2023-03-19T03:10:11;101510.19;;;4.94;83.49
71857;BME280;63344;46.980;28.882;2023-03-19T03:12:39;101515.44;;;4.91;83.26
71857;BME280;63344;46.980;28.882;2023-03-19T03:15:06;101510.19;;;4.88;83.80
71857;BME280;63344;46.980;28.882;2023-03-19T03:17:38;101521.59;;;4.88;84.18
71857;BME280;63344;46.980;28.882;2023-03-19T03:20:07;101515.47;;;4.88;83.92
71857;BME280;63344;46.980;28.882;2023-03-19T03:22:35;101515.44;;;4.86;84.28
71857;BME280;63344;46.980;28.882;2023-03-19T03:25:04;101518.94;;;4.88;84.12
71857;BME280;63344;46.980;28.882;2023-03-19T03:27:33;101518.94;;;4.87;84.35
71857;BME280;63344;46.980;28.882;2023-03-19T03:30:00;101517.19;;;4.84;84.49
71857;BME280;63344;46.980;28.882;2023-03-19T03:32:27;101523.34;;;4.88;84.28
71857;BME280;63344;46.980;28.882;2023-03-19T03:34:55;101524.22;;;4.90;84.23
71857;BME280;63344;46.980;28.882;2023-03-19T03:37:22;101526.84;;;4.90;84.40
71857;BME280;63344;46.980;28.882;2023-03-19T03:39:49;101519.81;;;4.89;84.04
71857;BME280;63344;46.980;28.882;2023-03-19T03:42:16;101521.59;;;4.91;84.18
71857;BME280;63344;46.980;28.882;2023-03-19T03:44:44;101518.06;;;4.91;84.24
71857;BME280;63344;46.980;28.882;2023-03-19T03:47:11;101532.09;;;4.93;84.40
71857;BME280;63344;46.980;28.882;2023-03-19T03:49:39;101526.88;;;4.91;84.21
71857;BME280;63344;46.980;28.882;2023-03-19T03:52:08;101520.72;;;4.86;84.28
71857;BME280;63344;46.980;28.882;2023-03-19T03:54:35;101506.69;;;4.79;84.50
71857;BME280;63344;46.980;28.882;2023-03-19T03:57:02;101521.56;;;4.85;84.55
71857;BME280;63344;46.980;28.882;2023-03-19T03:59:30;101508.44;;;4.81;84.74
71857;BME280;63344;46.980;28.882;2023-03-19T04:01:59;101512.84;;;4.82;85.04
71857;BME280;63344;46.980;28.882;2023-03-19T04:04:27;101509.31;;;4.83;84.85
71857;BME280;63344;46.980;28.882;2023-03-19T04:06:54;101513.69;;;4.87;84.91
71857;BME280;63344;46.980;28.882;2023-03-19T04:09:21;101513.69;;;4.87;84.70
71857;BME280;63344;46.980;28.882;2023-03-19T04:11:51;101510.19;;;4.88;84.49
71857;BME280;63344;46.980;28.882;2023-03-19T04:14:19;101518.94;;;4.87;84.76
71857;BME280;63344;46.980;28.882;2023-03-19T04:16:46;101512.81;;;4.88;84.59
71857;BME280;63344;46.980;28.882;2023-03-19T04:19:13;101514.56;;;4.90;84.65
71857;BME280;63344;46.980;28.882;2023-03-19T04:21:41;101521.56;;;4.87;84.52
71857;BME280;63344;46.980;28.882;2023-03-19T04:24:08;101524.22;;;4.90;84.59
71857;BME280;63344;46.980;28.882;2023-03-19T04:26:36;101521.56;;;4.85;84.61
71857;BME280;63344;46.980;28.882;2023-03-19T04:29:04;101520.69;;;4.85;84.93
71857;BME280;63344;46.980;28.882;2023-03-19T04:31:31;101526.84;;;4.88;84.79
71857;BME280;63344;46.980;28.882;2023-03-19T04:33:59;101523.31;;;4.91;84.78
71857;BME280;63344;46.980;28.882;2023-03-19T04:36:26;101530.34;;;4.89;84.69
71857;BME280;63344;46.980;28.882;2023-03-19T04:38:54;101528.59;;;4.85;84.69
71857;BME280;63344;46.980;28.882;2023-03-19T04:41:23;101536.50;;;4.86;84.74
71857;BME280;63344;46.980;28.882;2023-03-19T04:43:58;101536.50;;;4.85;84.81
71857;BME280;63344;46.980;28.882;2023-03-19T04:46:25;101532.09;;;4.87;85.06
71857;BME280;63344;46.980;28.882;2023-03-19T04:48:53;101531.22;;;4.85;84.82
71857;BME280;63344;46.980;28.882;2023-03-19T04:51:20;101530.38;;;4.84;84.78
71857;BME280;63344;46.980;28.882;2023-03-19T04:53:48;101540.88;;;4.84;84.93
71857;BME280;63344;46.980;28.882;2023-03-19T04:56:18;101544.38;;;4.83;84.85
71857;BME280;63344;46.980;28.882;2023-03-19T04:58:46;101530.34;;;4.83;85.18
71857;BME280;63344;46.980;28.882;2023-03-19T05:01:14;101536.50;;;4.88;85.24
71857;BME280;63344;46.980;28.882;2023-03-19T05:03:49;101519.84;;;4.86;85.23
71857;BME280;63344;46.980;28.882;2023-03-19T05:06:18;101531.22;;;4.91;84.94
71857;BME280;63344;46.980;28.882;2023-03-19T05:08:48;101537.38;;;4.96;84.53
71857;BME280;63344;46.980;28.882;2023-03-19T05:11:15;101530.34;;;4.95;84.60
71857;BME280;63344;46.980;28.882;2023-03-19T05:13:43;101542.66;;;4.97;84.53
71857;BME280;63344;46.980;28.882;2023-03-19T05:16:10;101536.50;;;5.02;84.21
71857;BME280;63344;46.980;28.882;2023-03-19T05:18:41;101537.38;;;5.01;84.55
71857;BME280;63344;46.980;28.882;2023-03-19T05:21:10;101525.94;;;5.03;84.33
71857;BME280;63344;46.980;28.882;2023-03-19T05:23:39;101530.34;;;5.03;84.14
71857;BME280;63344;46.980;28.882;2023-03-19T05:26:10;101535.59;;;5.04;84.04
71857;BME280;63344;46.980;28.882;2023-03-19T05:28:37;101537.38;;;5.10;84.21
71857;BME280;63344;46.980;28.882;2023-03-19T05:31:05;101542.63;;;5.04;84.32
71857;BME280;63344;46.980;28.882;2023-03-19T05:33:35;101540.88;;;5.06;84.19
71857;BME280;63344;46.980;28.882;2023-03-19T05:36:03;101534.75;;;5.02;84.01
71857;BME280;63344;46.980;28.882;2023-03-19T05:38:47;101529.44;;;5.05;84.47
71857;BME280;63344;46.980;28.882;2023-03-19T05:41:14;101532.97;;;5.03;84.34
71857;BME280;63344;46.980;28.882;2023-03-19T05:43:43;101544.38;;;5.05;84.56
71857;BME280;63344;46.980;28.882;2023-03-19T05:46:11;101539.13;;;5.06;84.81
71857;BME280;63344;46.980;28.882;2023-03-19T05:48:39;101549.66;;;5.06;84.64
71857;BME280;63344;46.980;28.882;2023-03-19T05:51:09;101549.63;;;5.11;85.05
71857;BME280;63344;46.980;28.882;2023-03-19T05:53:38;101547.91;;;5.10;84.99
71857;BME280;63344;46.980;28.882;2023-03-19T05:56:05;101547.88;;;5.14;84.74
71857;BME280;63344;46.980;28.882;2023-03-19T05:58:36;101547.00;;;5.14;84.55
71857;BME280;63344;46.980;28.882;2023-03-19T06:01:03;101558.41;;;5.22;84.53
71857;BME280;63344;46.980;28.882;2023-03-19T06:03:53;101558.41;;;5.22;84.40
71857;BME280;63344;46.980;28.882;2023-03-19T06:06:50;101549.63;;;5.18;84.59
71857;BME280;63344;46.980;28.882;2023-03-19T06:09:44;101557.53;;;5.22;84.80
71857;BME280;63344;46.980;28.882;2023-03-19T06:12:30;101558.41;;;5.22;84.67
71857;BME280;63344;46.980;28.882;2023-03-19T06:15:01;101554.88;;;5.25;84.51
71857;BME280;63344;46.980;28.882;2023-03-19T06:17:29;101563.69;;;5.25;84.56
71857;BME280;63344;46.980;28.882;2023-03-19T06:20:08;101557.53;;;5.22;84.68
71857;BME280;63344;46.980;28.882;2023-03-19T06:22:37;101551.41;;;5.19;84.96
71857;BME280;63344;46.980;28.882;2023-03-19T06:25:05;101560.16;;;5.22;84.73
71857;BME280;63344;46.980;28.882;2023-03-19T06:27:32;101558.41;;;5.25;85.12
71857;BME280;63344;46.980;28.882;2023-03-19T06:30:00;101556.63;;;5.21;84.90
71857;BME280;63344;46.980;28.882;2023-03-19T06:32:27;101565.41;;;5.23;84.76
71857;BME280;63344;46.980;28.882;2023-03-19T06:36:25;101558.41;;;5.31;84.79
71857;BME280;63344;46.980;28.882;2023-03-19T06:39:26;101550.47;;;5.27;84.61
71857;BME280;63344;46.980;28.882;2023-03-19T06:42:03;101557.47;;;5.37;84.38
71857;BME280;63344;46.980;28.882;2023-03-19T06:44:47;101546.94;;;5.38;84.15
71857;BME280;63344;46.980;28.882;2023-03-19T06:47:15;101549.59;;;5.40;83.92
71857;BME280;63344;46.980;28.882;2023-03-19T06:49:44;101554.84;;;5.37;83.89
71857;BME280;63344;46.980;28.882;2023-03-19T06:52:30;101547.84;;;5.37;84.14
71857;BME280;63344;46.980;28.882;2023-03-19T06:54:58;101561.88;;;5.43;84.05
71857;BME280;63344;46.980;28.882;2023-03-19T06:57:26;101547.81;;;5.39;84.28
71857;BME280;63344;46.980;28.882;2023-03-19T06:59:54;101560.09;;;5.46;83.96
71857;BME280;63344;46.980;28.882;2023-03-19T07:02:23;101551.34;;;5.44;83.68
71857;BME280;63344;46.980;28.882;2023-03-19T07:04:52;101556.59;;;5.46;83.90
71857;BME280;63344;46.980;28.882;2023-03-19T07:07:19;101561.88;;;5.46;83.68
71857;BME280;63344;46.980;28.882;2023-03-19T07:09:47;101571.53;;;5.48;83.74
71857;BME280;63344;46.980;28.882;2023-03-19T07:12:15;101561.88;;;5.46;83.89
71857;BME280;63344;46.980;28.882;2023-03-19T07:14:43;101562.72;;;5.51;84.04
71857;BME280;63344;46.980;28.882;2023-03-19T07:17:11;101563.59;;;5.53;83.67
71857;BME280;63344;46.980;28.882;2023-03-19T07:19:38;101565.34;;;5.62;83.93
71857;BME280;63344;46.980;28.882;2023-03-19T07:22:08;101563.56;;;5.67;83.54
71857;BME280;63344;46.980;28.882;2023-03-19T07:24:35;101566.19;;;5.71;83.10
71857;BME280;63344;46.980;28.882;2023-03-19T07:27:04;101572.31;;;5.78;83.04
71857;BME280;63344;46.980;28.882;2023-03-19T07:29:32;101551.22;;;5.76;82.70
71857;BME280;63344;46.980;28.882;2023-03-19T07:32:06;101559.09;;;5.83;82.25
71857;BME280;63344;46.980;28.882;2023-03-19T07:34:34;101559.09;;;5.83;82.40
71857;BME280;63344;46.980;28.882;2023-03-19T07:37:06;101556.50;;;5.79;82.10
71857;BME280;63344;46.980;28.882;2023-03-19T07:39:33;101559.97;;;5.85;82.22
71857;BME280;63344;46.980;28.882;2023-03-19T07:42:01;101554.69;;;5.85;81.89
71857;BME280;63344;46.980;28.882;2023-03-19T07:44:29;101560.84;;;5.90;81.46
71857;BME280;63344;46.980;28.882;2023-03-19T07:46:57;101562.56;;;5.91;81.17
71857;BME280;63344;46.980;28.882;2023-03-19T07:49:24;101559.97;;;5.88;81.01
71857;BME280;63344;46.980;28.882;2023-03-19T07:51:52;101563.47;;;5.88;81.26
71857;BME280;63344;46.980;28.882;2023-03-19T07:54:20;101563.44;;;5.93;81.37
71857;BME280;63344;46.980;28.882;2023-03-19T07:56:48;101564.34;;;6.00;81.22
71857;BME280;63344;46.980;28.882;2023-03-19T07:59:16;101566.06;;;6.07;80.78
71857;BME280;63344;46.980;28.882;2023-03-19T08:01:44;101554.63;;;6.08;80.94
71857;BME280;63344;46.980;28.882;2023-03-19T08:04:11;101561.66;;;6.12;80.81
71857;BME280;63344;46.980;28.882;2023-03-19T08:06:42;101573.03;;;6.22;80.21
71857;BME280;63344;46.980;28.882;2023-03-19T08:09:10;101566.88;;;6.18;79.66
71857;BME280;63344;46.980;28.882;2023-03-19T08:11:39;101568.63;;;6.22;79.22
71857;BME280;63344;46.980;28.882;2023-03-19T08:14:06;101565.94;;;6.28;78.92
71857;BME280;63344;46.980;28.882;2023-03-19T08:16:34;101558.91;;;6.30;78.40
71857;BME280;63344;46.980;28.882;2023-03-19T08:19:03;101558.00;;;6.39;78.10
71857;BME280;63344;46.980;28.882;2023-03-19T08:21:32;101557.91;;;6.48;78.04
71857;BME280;63344;46.980;28.882;2023-03-19T08:24:00;101568.47;;;6.51;77.07
71857;BME280;63344;46.980;28.882;2023-03-19T08:26:32;101558.72;;;6.55;76.08
71857;BME280;63344;46.980;28.882;2023-03-19T08:29:00;101562.22;;;6.63;75.98
71857;BME280;63344;46.980;28.882;2023-03-19T08:31:32;101565.69;;;6.68;75.62
71857;BME280;63344;46.980;28.882;2023-03-19T08:33:59;101563.88;;;6.75;75.65
71857;BME280;63344;46.980;28.882;2023-03-19T08:36:30;101562.94;;;6.81;75.32
71857;BME280;63344;46.980;28.882;2023-03-19T08:38:57;101555.06;;;6.76;75.45
71857;BME280;63344;46.980;28.882;2023-03-19T08:41:25;101555.97;;;6.73;75.22
71857;BME280;63344;46.980;28.882;2023-03-19T08:43:52;101560.28;;;6.82;75.69
71857;BME280;63344;46.980;28.882;2023-03-19T08:46:19;101557.69;;;6.79;75.95
71857;BME280;63344;46.980;28.882;2023-03-19T08:48:47;101575.16;;;6.92;75.59
71857;BME280;63344;46.980;28.882;2023-03-19T08:51:16;101561.97;;;6.94;75.93
71857;BME280;63344;46.980;28.882;2023-03-19T08:53:44;101570.75;;;6.94;75.85
71857;BME280;63344;46.980;28.882;2023-03-19T08:56:12;101561.09;;;6.95;75.87
71857;BME280;63344;46.980;28.882;2023-03-19T08:58:39;101550.44;;;7.04;75.47
71857;BME280;63344;46.980;28.882;2023-03-19T09:01:14;101555.69;;;7.07;74.36
71857;BME280;63344;46.980;28.882;2023-03-19T09:03:42;101559.19;;;7.08;73.64
71857;BME280;63344;46.980;28.882;2023-03-19T09:06:12;101561.84;;;7.06;72.99
71857;BME280;63344;46.980;28.882;2023-03-19T09:08:41;101550.44;;;7.03;73.00
71857;BME280;63344;46.980;28.882;2023-03-19T09:11:09;101547.78;;;7.03;73.22
71857;BME280;63344;46.980;28.882;2023-03-19T09:13:37;101543.38;;;7.05;73.34
71857;BME280;63344;46.980;28.882;2023-03-19T09:16:10;101552.25;;;6.94;72.22
71857;BME280;63344;46.980;28.882;2023-03-19T09:18:38;101556.75;;;6.86;71.89
71857;BME280;63344;46.980;28.882;2023-03-19T09:21:06;101551.56;;;6.77;72.45
71857;BME280;63344;46.980;28.882;2023-03-19T09:23:35;101541.88;;;6.77;72.84
71857;BME280;63344;46.980;28.882;2023-03-19T09:26:04;101543.59;;;6.83;73.10
71857;BME280;63344;46.980;28.882;2023-03-19T09:28:33;101555.06;;;6.77;73.48
71857;BME280;63344;46.980;28.882;2023-03-19T09:31:01;101544.56;;;6.71;73.26
71857;BME280;63344;46.980;28.882;2023-03-19T09:33:33;101548.06;;;6.73;73.66
71857;BME280;63344;46.980;28.882;2023-03-19T09:36:01;101542.84;;;6.66;73.54
71857;BME280;63344;46.980;28.882;2023-03-19T09:38:29;101531.47;;;6.54;73.60
71857;BME280;63344;46.980;28.882;2023-03-19T09:41:19;101540.25;;;6.61;73.72
71857;BME280;63344;46.980;28.882;2023-03-19T09:43:57;101532.28;;;6.63;73.92
71857;BME280;63344;46.980;28.882;2023-03-19T09:49:46;101520.84;;;6.65;73.26
71857;BME280;63344;46.980;28.882;2023-03-19T09:55:34;101503.19;;;6.70;73.49
71857;BME280;63344;46.980;28.882;2023-03-19T09:58:11;101514.53;;;6.82;73.41
71857;BME280;63344;46.980;28.882;2023-03-19T10:00:39;101524.25;;;6.80;72.56
71857;BME280;63344;46.980;28.882;2023-03-19T10:16:49;101505.72;;;6.83;72.14
71857;BME280;63344;46.980;28.882;2023-03-19T10:19:30;101498.69;;;6.82;72.00
71857;BME280;63344;46.980;28.882;2023-03-19T10:22:11;101496.88;;;6.87;72.18
71857;BME280;63344;46.980;28.882;2023-03-19T10:24:42;101488.00;;;6.95;72.28
71857;BME280;63344;46.980;28.882;2023-03-19T10:27:14;101489.72;;;7.01;71.60
71857;BME280;63344;46.980;28.882;2023-03-19T10:29:42;101485.31;;;6.98;71.06
71857;BME280;63344;46.980;28.882;2023-03-19T10:32:19;101482.66;;;7.02;71.08
71857;BME280;63344;46.980;28.882;2023-03-19T10:34:49;101477.31;;;7.08;70.97
71857;BME280;63344;46.980;28.882;2023-03-19T10:37:23;101479.84;;;7.18;70.69
71857;BME280;63344;46.980;28.882;2023-03-19T10:39:57;101474.59;;;7.17;70.39
71857;BME280;63344;46.980;28.882;2023-03-19T10:42:45;101478.03;;;7.24;70.29
71857;BME280;63344;46.980;28.882;2023-03-19T10:45:26;101473.63;;;7.23;70.15
71857;BME280;63344;46.980;28.882;2023-03-19T10:47:55;101478.03;;;7.22;70.18
71857;BME280;63344;46.980;28.882;2023-03-19T10:50:52;101464.91;;;7.16;70.26
71857;BME280;63344;46.980;28.882;2023-03-19T10:53:33;101464.88;;;7.19;70.04
71857;BME280;63344;46.980;28.882;2023-03-19T10:56:19;101451.75;;;7.13;69.88
71857;BME280;63344;46.980;28.882;2023-03-19T10:59:05;101456.09;;;7.17;70.33
71857;BME280;63344;46.980;28.882;2023-03-19T11:01:40;101464.75;;;7.27;70.61
71857;BME280;63344;46.980;28.882;2023-03-19T11:04:16;101457.78;;;7.23;70.48
71857;BME280;63344;46.980;28.882;2023-03-19T11:06:48;101469.25;;;7.22;70.43
71857;BME280;63344;46.980;28.882;2023-03-19T11:09:36;101452.59;;;7.13;70.63
71857;BME280;63344;46.980;28.882;2023-03-19T11:12:17;101468.44;;;7.15;70.46
71857;BME280;63344;46.980;28.882;2023-03-19T11:15:00;101464.97;;;7.08;70.54
71857;BME280;63344;46.980;28.882;2023-03-19T11:17:46;101457.91;;;7.10;70.41
71857;BME280;63344;46.980;28.882;2023-03-19T11:20:26;101464.88;;;7.19;71.01
71857;BME280;63344;46.980;28.882;2023-03-19T11:22:55;101444.56;;;7.23;70.75
71857;BME280;63344;46.980;28.882;2023-03-19T11:25:34;101443.50;;;7.39;70.97
71857;BME280;63344;46.980;28.882;2023-03-19T11:28:23;101455.72;;;7.49;70.69
71857;BME280;63344;46.980;28.882;2023-03-19T11:31:14;101457.34;;;7.56;70.28
71857;BME280;63344;46.980;28.882;2023-03-19T11:34:16;101453.75;;;7.64;69.84
71857;BME280;63344;46.980;28.882;2023-03-19T11:37:25;101446.59;;;7.72;69.58
71857;BME280;63344;46.980;28.882;2023-03-19T11:40:33;101441.31;;;7.72;69.04
71857;BME280;63344;46.980;28.882;2023-03-19T11:51:19;101443.00;;;7.76;68.19
71857;BME280;63344;46.980;28.882;2023-03-19T11:56:49;101435.28;;;7.61;68.35
71857;BME280;63344;46.980;28.882;2023-03-19T11:59:31;101434.38;;;7.63;68.35
71857;BME280;63344;46.980;28.882;2023-03-19T12:05:32;101439.72;;;7.58;68.39
71857;BME280;63344;46.980;28.882;2023-03-19T12:08:16;101431.91;;;7.51;68.62
71857;BME280;63344;46.980;28.882;2023-03-19T12:10:57;101434.56;;;7.49;68.77
71857;BME280;63344;46.980;28.882;2023-03-19T12:19:17;101422.41;;;7.34;69.17
71857;BME280;63344;46.980;28.882;2023-03-19T12:22:15;101421.72;;;7.18;69.59
71857;BME280;63344;46.980;28.882;2023-03-19T12:24:57;101428.84;;;7.10;69.62
71857;BME280;63344;46.980;28.882;2023-03-19T12:30:01;101420.16;;;7.02;70.23
71857;BME280;63344;46.980;28.882;2023-03-19T12:33:19;101420.97;;;7.07;70.26
71857;BME280;63344;46.980;28.882;2023-03-19T12:35:49;101414.84;;;7.04;70.20
71857;BME280;63344;46.980;28.882;2023-03-19T12:41:17;101412.06;;;7.17;69.77
71857;BME280;63344;46.980;28.882;2023-03-19T12:44:08;101400.56;;;7.22;69.78
71857;BME280;63344;46.980;28.882;2023-03-19T12:49:45;101388.97;;;7.32;69.69
71857;BME280;63344;46.980;28.882;2023-03-19T12:55:36;101391.63;;;7.30;69.01
71857;BME280;63344;46.980;28.882;2023-03-19T12:58:32;101390.75;;;7.30;69.00
71857;BME280;63344;46.980;28.882;2023-03-19T13:01:15;101375.00;;;7.21;68.84
71857;BME280;63344;46.980;28.882;2023-03-19T13:06:42;101381.13;;;7.27;69.13
71857;BME280;63344;46.980;28.882;2023-03-19T13:09:27;101369.66;;;7.27;68.54
71857;BME280;63344;46.980;28.882;2023-03-19T13:12:09;101376.69;;;7.29;68.57
71857;BME280;63344;46.980;28.882;2023-03-19T13:18:18;101368.50;;;7.46;68.81
71857;BME280;63344;46.980;28.882;2023-03-19T13:21:24;101367.47;;;7.56;68.09
71857;BME280;63344;46.980;28.882;2023-03-19T13:26:33;101356.09;;;7.53;67.51
71857;BME280;63344;46.980;28.882;2023-03-19T13:29:15;101377.09;;;7.64;67.67
71857;BME280;63344;46.980;28.882;2023-03-19T13:31:44;101356.97;;;7.53;67.26
71857;BME280;63344;46.980;28.882;2023-03-19T13:37:23;101345.47;;;7.57;67.48
71857;BME280;63344;46.980;28.882;2023-03-19T13:49:36;101341.94;;;7.57;67.93
71857;BME280;63344;46.980;28.882;2023-03-19T13:54:44;101338.66;;;7.41;69.46
71857;BME280;63344;46.980;28.882;2023-03-19T13:57:32;101330.84;;;7.32;70.11
71857;BME280;63344;46.980;28.882;2023-03-19T14:03:21;101333.59;;;7.23;70.34
71857;BME280;63344;46.980;28.882;2023-03-19T14:05:52;101325.66;;;7.23;70.36
71857;BME280;63344;46.980;28.882;2023-03-19T14:08:57;101327.47;;;7.21;70.39
71857;BME280;63344;46.980;28.882;2023-03-19T14:11:28;101319.69;;;7.10;70.99
71857;BME280;63344;46.980;28.882;2023-03-19T14:14:04;101323.22;;;7.09;71.48
71857;BME280;63344;46.980;28.882;2023-03-19T14:16:37;101328.50;;;7.09;71.04
71857;BME280;63344;46.980;28.882;2023-03-19T14:19:16;101322.44;;;7.02;71.37
71857;BME280;63344;46.980;28.882;2023-03-19T14:27:30;101329.50;;;7.00;71.76
71857;BME280;63344;46.980;28.882;2023-03-19T14:30:25;101333.09;;;6.94;72.07
71857;BME280;63344;46.980;28.882;2023-03-19T14:32:55;101333.16;;;6.87;72.05
71857;BME280;63344;46.980;28.882;2023-03-19T14:35:24;101334.97;;;6.85;72.38
71857;BME280;63344;46.980;28.882;2023-03-19T14:37:53;101331.53;;;6.80;72.94
71857;BME280;63344;46.980;28.882;2023-03-19T14:40:57;101331.53;;;6.76;72.96
71857;BME280;63344;46.980;28.882;2023-03-19T14:54:43;101324.78;;;6.51;73.69